createdAt,value
2017-04-03T00:00:30.886Z,136
2017-04-03T00:01:30.944Z,136
2017-04-03T00:02:30.996Z,136
2017-04-03T00:03:31.047Z,140
2017-04-03T00:04:31.103Z,144
2017-04-03T00:05:30.855Z,136
2017-04-03T00:06:30.910Z,136
2017-04-03T00:07:31.262Z,136
2017-04-03T00:08:31.318Z,136
2017-04-03T00:09:31.367Z,136
2017-04-03T00:10:31.421Z,136
2017-04-03T00:11:31.474Z,136
2017-04-03T00:12:31.528Z,140
2017-04-03T00:13:31.580Z,136
2017-04-03T00:14:31.332Z,136
2017-04-03T00:15:31.687Z,136
2017-04-03T00:16:31.742Z,136
2017-04-03T00:17:31.797Z,144
2017-04-03T00:18:31.888Z,136
2017-04-03T00:19:31.900Z,140
2017-04-03T00:20:31.957Z,136
2017-04-03T00:21:32.007Z,136
2017-04-03T00:22:32.059Z,140
2017-04-03T00:23:32.109Z,140
2017-04-03T00:24:32.165Z,136
2017-04-03T00:25:32.225Z,140
2017-04-03T00:26:32.275Z,140
2017-04-03T00:27:32.332Z,136
2017-04-03T00:28:32.382Z,136
2017-04-03T00:29:32.435Z,136
2017-04-03T00:30:32.483Z,140
2017-04-03T00:31:32.588Z,136
2017-04-03T00:32:32.595Z,140
2017-04-03T00:33:32.347Z,136
2017-04-03T00:34:32.704Z,136
2017-04-03T00:35:32.750Z,140
2017-04-03T00:36:32.811Z,136
2017-04-03T00:37:32.862Z,136
2017-04-03T00:38:32.611Z,136
2017-04-03T00:39:32.662Z,136
2017-04-03T00:40:32.718Z,136
2017-04-03T00:41:33.071Z,136
2017-04-03T00:42:33.122Z,136
2017-04-03T00:43:33.177Z,136
2017-04-03T00:44:33.232Z,136
2017-04-03T00:45:32.983Z,136
2017-04-03T00:46:33.341Z,136
2017-04-03T00:47:33.398Z,140
2017-04-03T00:48:33.445Z,140
2017-04-03T00:49:33.498Z,136
2017-04-03T00:50:33.549Z,140
2017-04-03T00:51:33.604Z,136
2017-04-03T00:52:33.360Z,136
2017-04-03T00:53:33.714Z,132
2017-04-03T00:54:33.762Z,136
2017-04-03T00:55:33.818Z,136
2017-04-03T00:56:33.868Z,136
2017-04-03T00:57:33.924Z,136
2017-04-03T00:58:33.974Z,136
2017-04-03T00:59:34.028Z,136
2017-04-03T01:00:34.082Z,136
2017-04-03T01:01:34.136Z,140
2017-04-03T01:02:34.192Z,136
2017-04-03T01:03:34.244Z,140
2017-04-03T01:04:34.294Z,140
2017-04-03T01:05:34.346Z,140
2017-04-03T01:06:34.400Z,136
2017-04-03T01:07:34.451Z,140
2017-04-03T01:08:34.204Z,136
2017-04-03T01:09:34.561Z,136
2017-04-03T01:10:34.612Z,140
2017-04-03T01:11:34.713Z,136
2017-04-03T01:12:34.420Z,140
2017-04-03T01:13:34.767Z,136
2017-04-03T01:14:34.825Z,136
2017-04-03T01:15:34.882Z,136
2017-04-03T01:16:34.936Z,136
2017-04-03T01:17:34.987Z,136
2017-04-03T01:18:35.042Z,136
2017-04-03T01:19:35.094Z,136
2017-04-03T01:20:35.148Z,136
2017-04-03T01:21:35.211Z,136
2017-04-03T01:22:35.253Z,136
2017-04-03T01:23:35.304Z,136
2017-04-03T01:24:35.364Z,136
2017-04-03T01:25:35.411Z,140
2017-04-03T01:26:35.464Z,136
2017-04-03T01:27:35.518Z,136
2017-04-03T01:28:35.567Z,136
2017-04-03T01:29:35.620Z,136
2017-04-03T01:30:35.679Z,136
2017-04-03T01:31:35.730Z,136
2017-04-03T01:32:35.784Z,140
2017-04-03T01:33:35.838Z,136
2017-04-03T01:34:35.894Z,136
2017-04-03T01:35:35.943Z,140
2017-04-03T01:36:35.999Z,136
2017-04-03T01:37:36.055Z,136
2017-04-03T01:38:36.101Z,136
2017-04-03T01:39:36.156Z,136
2017-04-03T01:40:36.207Z,136
2017-04-03T01:41:36.260Z,136
2017-04-03T01:42:36.312Z,136
2017-04-03T01:43:36.364Z,136
2017-04-03T01:44:36.424Z,132
2017-04-03T01:45:36.470Z,140
2017-04-03T01:46:36.528Z,136
2017-04-03T01:47:36.581Z,136
2017-04-03T01:48:36.631Z,136
2017-04-03T01:49:36.687Z,136
2017-04-03T01:50:36.741Z,136
2017-04-03T01:51:36.793Z,136
2017-04-03T01:52:36.851Z,140
2017-04-03T01:53:36.897Z,140
2017-04-03T01:54:36.951Z,140
2017-04-03T01:55:37.002Z,136
2017-04-03T01:56:37.098Z,136
2017-04-03T01:57:36.808Z,136
2017-04-03T01:58:37.166Z,136
2017-04-03T01:59:37.217Z,140
2017-04-03T02:00:37.277Z,136
2017-04-03T02:01:37.328Z,136
2017-04-03T02:02:37.376Z,136
2017-04-03T02:03:37.423Z,140
2017-04-03T02:04:37.479Z,136
2017-04-03T02:05:37.529Z,136
2017-04-03T02:06:37.283Z,140
2017-04-03T02:07:37.644Z,136
2017-04-03T02:08:37.689Z,140
2017-04-03T02:09:37.441Z,136
2017-04-03T02:10:37.798Z,140
2017-04-03T02:11:37.850Z,140
2017-04-03T02:12:37.904Z,136
2017-04-03T02:13:37.956Z,136
2017-04-03T02:14:38.013Z,140
2017-04-03T02:15:37.760Z,136
2017-04-03T02:16:38.119Z,136
2017-04-03T02:17:37.866Z,140
2017-04-03T02:18:38.223Z,144
2017-04-03T02:19:38.307Z,140
2017-04-03T02:20:38.325Z,136
2017-04-03T02:21:38.387Z,136
2017-04-03T02:22:38.437Z,140
2017-04-03T02:23:38.488Z,140
2017-04-03T02:24:38.539Z,140
2017-04-03T02:25:38.595Z,136
2017-04-03T02:26:38.649Z,136
2017-04-03T02:27:38.699Z,136
2017-04-03T02:28:38.752Z,140
2017-04-03T02:29:38.503Z,136
2017-04-03T02:30:38.862Z,140
2017-04-03T02:31:38.913Z,136
2017-04-03T02:32:38.992Z,136
2017-04-03T02:33:39.017Z,136
2017-04-03T02:34:39.081Z,136
2017-04-03T02:35:39.125Z,136
2017-04-03T02:36:39.223Z,136
2017-04-03T02:37:39.231Z,136
2017-04-03T02:38:38.980Z,136
2017-04-03T02:39:39.339Z,140
2017-04-03T02:40:39.396Z,140
2017-04-03T02:41:39.448Z,140
2017-04-03T02:42:39.500Z,136
2017-04-03T02:43:39.551Z,136
2017-04-03T02:44:39.603Z,136
2017-04-03T02:45:39.654Z,140
2017-04-03T02:46:39.710Z,136
2017-04-03T02:47:39.456Z,136
2017-04-03T02:48:39.813Z,136
2017-04-03T02:49:39.864Z,136
2017-04-03T02:50:39.918Z,136
2017-04-03T02:51:39.672Z,140
2017-04-03T02:52:40.026Z,136
2017-04-03T02:53:40.081Z,140
2017-04-03T02:54:40.132Z,136
2017-04-03T02:55:40.183Z,136
2017-04-03T02:56:40.244Z,136
2017-04-03T02:57:40.293Z,140
2017-04-03T02:58:40.344Z,136
2017-04-03T02:59:40.402Z,136
2017-04-03T03:00:40.451Z,136
2017-04-03T03:01:40.505Z,136
2017-04-03T03:02:40.256Z,136
2017-04-03T03:03:40.606Z,136
2017-04-03T03:04:40.663Z,136
2017-04-03T03:05:40.418Z,136
2017-04-03T03:06:40.767Z,136
2017-04-03T03:07:40.816Z,136
2017-04-03T03:08:40.875Z,136
2017-04-03T03:09:40.926Z,140
2017-04-03T03:10:40.979Z,136
2017-04-03T03:11:41.032Z,136
2017-04-03T03:12:41.092Z,140
2017-04-03T03:13:41.137Z,140
2017-04-03T03:14:41.185Z,136
2017-04-03T03:15:41.245Z,136
2017-04-03T03:16:41.297Z,136
2017-04-03T03:17:41.353Z,136
2017-04-03T03:18:41.402Z,136
2017-04-03T03:19:41.457Z,140
2017-04-03T03:20:41.512Z,144
2017-04-03T03:21:41.556Z,140
2017-04-03T03:22:41.612Z,140
2017-04-03T03:23:41.668Z,136
2017-04-03T03:24:41.722Z,136
2017-04-03T03:25:41.775Z,136
2017-04-03T03:26:41.826Z,144
2017-04-03T03:27:41.880Z,136
2017-04-03T03:28:41.929Z,136
2017-04-03T03:29:41.681Z,136
2017-04-03T03:30:42.036Z,136
2017-04-03T03:31:42.090Z,140
2017-04-03T03:32:41.837Z,136
2017-04-03T03:33:42.202Z,136
2017-04-03T03:34:41.948Z,136
2017-04-03T03:35:42.308Z,136
2017-04-03T03:36:42.364Z,136
2017-04-03T03:37:42.416Z,136
2017-04-03T03:38:42.464Z,136
2017-04-03T03:39:42.513Z,140
2017-04-03T03:40:42.563Z,136
2017-04-03T03:41:42.618Z,136
2017-04-03T03:42:42.672Z,136
2017-04-03T03:43:42.725Z,140
2017-04-03T03:44:42.775Z,136
2017-04-03T03:45:42.838Z,136
2017-04-03T03:46:42.884Z,136
2017-04-03T03:47:42.938Z,140
2017-04-03T03:48:42.692Z,140
2017-04-03T03:49:43.045Z,136
2017-04-03T03:50:43.095Z,136
2017-04-03T03:51:43.147Z,140
2017-04-03T03:52:43.214Z,140
2017-04-03T03:53:43.252Z,144
2017-04-03T03:54:43.304Z,144
2017-04-03T03:55:43.361Z,144
2017-04-03T03:56:43.413Z,136
2017-04-03T03:57:43.464Z,136
2017-04-03T03:58:43.515Z,136
2017-04-03T03:59:43.581Z,140
2017-04-03T04:00:43.624Z,140
2017-04-03T04:01:43.681Z,136
2017-04-03T04:02:43.431Z,136
2017-04-03T04:03:43.791Z,140
2017-04-03T04:04:43.837Z,140
2017-04-03T04:05:43.888Z,144
2017-04-03T04:06:43.940Z,140
2017-04-03T04:07:43.994Z,136
2017-04-03T04:08:43.747Z,136
2017-04-03T04:09:43.794Z,136
2017-04-03T04:10:44.155Z,136
2017-04-03T04:11:44.205Z,140
2017-04-03T04:12:44.262Z,136
2017-04-03T04:13:44.313Z,136
2017-04-03T04:14:44.360Z,140
2017-04-03T04:15:44.120Z,136
2017-04-03T04:16:44.471Z,140
2017-04-03T04:17:44.525Z,140
2017-04-03T04:18:44.570Z,140
2017-04-03T04:19:44.632Z,140
2017-04-03T04:20:44.683Z,136
2017-04-03T04:21:44.744Z,136
2017-04-03T04:22:44.785Z,140
2017-04-03T04:23:44.834Z,140
2017-04-03T04:24:44.896Z,136
2017-04-03T04:25:44.943Z,136
2017-04-03T04:26:45.001Z,136
2017-04-03T04:27:45.047Z,140
2017-04-03T04:28:45.104Z,144
2017-04-03T04:29:45.155Z,140
2017-04-03T04:30:45.217Z,140
2017-04-03T04:31:45.263Z,140
2017-04-03T04:32:45.314Z,144
2017-04-03T04:33:45.370Z,144
2017-04-03T04:34:45.424Z,148
2017-04-03T04:35:45.472Z,148
2017-04-03T04:36:45.524Z,148
2017-04-03T04:37:45.578Z,156
2017-04-03T04:38:45.632Z,156
2017-04-03T04:39:45.687Z,156
2017-04-03T04:40:45.740Z,164
2017-04-03T04:41:45.491Z,164
2017-04-03T04:42:45.844Z,164
2017-04-03T04:43:45.896Z,172
2017-04-03T04:44:45.954Z,176
2017-04-03T04:45:46.002Z,184
2017-04-03T04:46:46.056Z,188
2017-04-03T04:47:46.108Z,192
2017-04-03T04:48:46.161Z,196
2017-04-03T04:49:46.211Z,200
2017-04-03T04:50:46.264Z,212
2017-04-03T04:51:46.319Z,212
2017-04-03T04:52:46.367Z,220
2017-04-03T04:53:46.425Z,228
2017-04-03T04:54:46.474Z,228
2017-04-03T04:55:46.521Z,240
2017-04-03T04:56:46.579Z,244
2017-04-03T04:57:46.636Z,252
2017-04-03T04:58:46.683Z,260
2017-04-03T04:59:46.741Z,260
2017-04-03T05:00:46.793Z,260
2017-04-03T05:01:46.851Z,272
2017-04-03T05:02:46.895Z,272
2017-04-03T05:03:46.946Z,272
2017-04-03T05:04:46.698Z,268
2017-04-03T05:05:46.757Z,272
2017-04-03T05:06:47.106Z,272
2017-04-03T05:07:47.164Z,264
2017-04-03T05:08:47.221Z,268
2017-04-03T05:09:47.270Z,280
2017-04-03T05:10:47.321Z,292
2017-04-03T05:11:47.371Z,316
2017-04-03T05:12:47.422Z,324
2017-04-03T05:13:47.472Z,336
2017-04-03T05:14:47.527Z,336
2017-04-03T05:15:47.580Z,344
2017-04-03T05:16:47.631Z,344
2017-04-03T05:17:47.687Z,356
2017-04-03T05:18:47.737Z,380
2017-04-03T05:19:47.795Z,420
2017-04-03T05:20:47.846Z,440
2017-04-03T05:21:47.900Z,448
2017-04-03T05:22:47.954Z,452
2017-04-03T05:23:48.002Z,444
2017-04-03T05:24:48.055Z,436
2017-04-03T05:25:48.109Z,432
2017-04-03T05:26:48.159Z,440
2017-04-03T05:27:48.216Z,456
2017-04-03T05:28:48.265Z,468
2017-04-03T05:29:48.316Z,476
2017-04-03T05:30:48.367Z,476
2017-04-03T05:31:48.422Z,480
2017-04-03T05:32:48.473Z,484
2017-04-03T05:33:48.527Z,488
2017-04-03T05:34:48.589Z,512
2017-04-03T05:35:48.639Z,532
2017-04-03T05:36:48.687Z,560
2017-04-03T05:37:48.735Z,604
2017-04-03T05:38:48.792Z,648
2017-04-03T05:39:48.848Z,692
2017-04-03T05:40:48.893Z,768
2017-04-03T05:41:48.947Z,848
2017-04-03T05:42:49.000Z,912
2017-04-03T05:43:49.091Z,948
2017-04-03T05:44:49.110Z,1012
2017-04-03T05:45:49.165Z,1100
2017-04-03T05:46:49.211Z,1220
2017-04-03T05:47:49.267Z,1228
2017-04-03T05:48:49.317Z,1148
2017-04-03T05:49:49.375Z,1036
2017-04-03T05:50:49.424Z,956
2017-04-03T05:51:49.477Z,876
2017-04-03T05:52:49.534Z,908
2017-04-03T05:53:49.578Z,868
2017-04-03T05:54:49.636Z,872
2017-04-03T05:55:49.687Z,920
2017-04-03T05:56:49.739Z,1032
2017-04-03T05:57:49.793Z,1216
2017-04-03T05:58:49.843Z,1436
2017-04-03T05:59:49.903Z,1684
2017-04-03T06:00:49.949Z,1948
2017-04-03T06:01:50.003Z,2080
2017-04-03T06:02:50.055Z,1976
2017-04-03T06:03:50.107Z,1908
2017-04-03T06:04:50.167Z,1760
2017-04-03T06:05:49.914Z,1484
2017-04-03T06:06:50.269Z,1280
2017-04-03T06:07:50.525Z,1184
2017-04-03T06:08:50.575Z,1116
2017-04-03T06:09:50.429Z,1060
2017-04-03T06:10:50.480Z,976
2017-04-03T06:11:50.528Z,940
2017-04-03T06:12:50.582Z,912
2017-04-03T06:13:50.640Z,904
2017-04-03T06:14:50.692Z,912
2017-04-03T06:15:50.745Z,848
2017-04-03T06:16:50.794Z,832
2017-04-03T06:17:50.850Z,836
2017-04-03T06:18:50.901Z,820
2017-04-03T06:19:50.655Z,820
2017-04-03T06:20:50.741Z,848
2017-04-03T06:21:51.058Z,884
2017-04-03T06:22:51.110Z,884
2017-04-03T06:23:51.164Z,876
2017-04-03T06:24:51.225Z,832
2017-04-03T06:25:51.271Z,836
2017-04-03T06:26:51.329Z,820
2017-04-03T06:27:51.378Z,828
2017-04-03T06:28:51.429Z,836
2017-04-03T06:29:51.485Z,816
2017-04-03T06:30:51.537Z,836
2017-04-03T06:31:51.589Z,856
2017-04-03T06:32:51.645Z,876
2017-04-03T06:33:51.698Z,968
2017-04-03T06:34:51.756Z,1084
2017-04-03T06:35:51.806Z,1128
2017-04-03T06:36:51.850Z,1156
2017-04-03T06:37:51.909Z,1176
2017-04-03T06:38:51.962Z,1236
2017-04-03T06:39:52.013Z,1328
2017-04-03T06:40:52.085Z,1352
2017-04-03T06:41:51.848Z,1332
2017-04-03T06:42:52.382Z,1280
2017-04-03T06:43:52.423Z,1240
2017-04-03T06:44:51.972Z,1232
2017-04-03T06:45:52.332Z,1272
2017-04-03T06:46:52.383Z,1388
2017-04-03T06:47:52.435Z,1576
2017-04-03T06:48:52.491Z,1676
2017-04-03T06:49:52.539Z,1780
2017-04-03T06:50:52.600Z,1968
2017-04-03T06:51:52.647Z,1988
2017-04-03T06:52:52.700Z,1932
2017-04-03T06:53:52.765Z,1724
2017-04-03T06:54:52.802Z,1648
2017-04-03T06:55:52.857Z,1696
2017-04-03T06:56:52.916Z,2040
2017-04-03T06:57:52.961Z,2360
2017-04-03T06:58:53.022Z,2668
2017-04-03T06:59:53.072Z,2832
2017-04-03T07:00:53.127Z,2864
2017-04-03T07:01:53.179Z,3176
2017-04-03T07:02:53.229Z,2992
2017-04-03T07:03:53.282Z,2740
2017-04-03T07:04:53.337Z,2528
2017-04-03T07:05:53.391Z,2656
2017-04-03T07:06:53.438Z,3088
2017-04-03T07:07:53.191Z,3276
2017-04-03T07:08:53.243Z,3404
2017-04-03T07:09:53.598Z,3360
2017-04-03T07:10:53.650Z,3248
2017-04-03T07:11:53.704Z,3180
2017-04-03T07:12:53.760Z,3228
2017-04-03T07:13:53.816Z,2948
2017-04-03T07:14:53.864Z,2424
2017-04-03T07:15:53.933Z,2096
2017-04-03T07:16:53.979Z,1976
2017-04-03T07:18:07.657Z,1836
2017-04-03T07:18:54.290Z,1720
2017-04-03T07:19:54.134Z,1696
2017-04-03T07:20:54.180Z,1660
2017-04-03T07:21:54.251Z,1568
2017-04-03T07:22:54.304Z,1440
2017-04-03T07:23:54.579Z,1416
2017-04-03T07:24:54.397Z,1400
2017-04-03T07:25:54.462Z,1444
2017-04-03T07:26:54.505Z,1552
2017-04-03T07:27:54.555Z,1552
2017-04-03T07:28:54.625Z,1596
2017-04-03T07:29:54.661Z,1596
2017-04-03T07:30:54.722Z,1500
2017-04-03T07:31:54.773Z,1328
2017-04-03T07:32:54.827Z,1308
2017-04-03T07:33:54.877Z,1244
2017-04-03T07:34:54.943Z,1248
2017-04-03T07:35:54.981Z,1324
2017-04-03T07:36:55.039Z,1476
2017-04-03T07:37:55.094Z,1808
2017-04-03T07:38:54.843Z,2480
2017-04-03T07:39:54.895Z,3372
2017-04-03T07:40:54.956Z,2920
2017-04-03T07:41:55.004Z,2508
2017-04-03T07:42:55.358Z,2564
2017-04-03T07:43:55.109Z,2384
2017-04-03T07:44:55.165Z,2164
2017-04-03T07:45:55.218Z,2028
2017-04-03T07:46:55.570Z,2020
2017-04-03T07:47:55.624Z,2204
2017-04-03T07:48:55.676Z,2424
2017-04-03T07:49:55.933Z,3548
2017-04-03T07:50:55.485Z,6820
2017-04-03T07:51:55.839Z,8352
2017-04-03T07:52:55.592Z,6360
2017-04-03T07:53:56.150Z,6960
2017-04-03T07:54:55.998Z,6608
2017-04-03T07:55:55.957Z,4612
2017-04-03T07:56:56.104Z,2812
2017-04-03T07:57:56.160Z,2448
2017-04-03T07:58:56.210Z,2452
2017-04-03T07:59:56.267Z,2332
2017-04-03T08:00:56.322Z,2312
2017-04-03T08:01:56.378Z,2464
2017-04-03T08:02:56.426Z,2712
2017-04-03T08:03:56.478Z,3064
2017-04-03T08:04:56.239Z,3372
2017-04-03T08:05:56.588Z,3408
2017-04-03T08:06:56.646Z,3480
2017-04-03T08:07:56.688Z,3428
2017-04-03T08:08:56.747Z,3444
2017-04-03T08:09:56.804Z,3620
2017-04-03T08:10:56.873Z,3916
2017-04-03T08:11:56.923Z,3968
2017-04-03T08:12:56.959Z,4112
2017-04-03T08:13:57.012Z,4488
2017-04-03T08:14:57.064Z,4148
2017-04-03T08:15:57.130Z,3776
2017-04-03T08:16:57.173Z,3604
2017-04-03T08:17:57.227Z,3372
2017-04-03T08:18:57.284Z,3104
2017-04-03T08:19:57.342Z,3180
2017-04-03T08:20:57.390Z,3264
2017-04-03T08:21:57.438Z,3648
2017-04-03T08:22:57.499Z,4212
2017-04-03T08:23:57.752Z,4200
2017-04-03T08:24:57.802Z,3932
2017-04-03T08:25:57.656Z,3588
2017-04-03T08:26:57.717Z,3076
2017-04-03T08:27:57.762Z,2680
2017-04-03T08:28:57.815Z,2700
2017-04-03T08:29:57.871Z,3092
2017-04-03T08:31:12.251Z,3136
2017-04-03T08:31:57.983Z,2932
2017-04-03T08:32:58.032Z,2796
2017-04-03T08:34:11.461Z,2840
2017-04-03T08:34:57.837Z,2764
2017-04-03T08:35:57.888Z,2792
2017-04-03T08:36:57.951Z,2960
2017-04-03T08:37:58.300Z,2856
2017-04-03T08:38:58.353Z,2868
2017-04-03T08:39:58.411Z,2736
2017-04-03T08:40:58.160Z,3068
2017-04-03T08:41:58.513Z,3628
2017-04-03T08:42:58.569Z,4040
2017-04-03T08:43:58.623Z,4260
2017-04-03T08:44:58.681Z,4308
2017-04-03T08:45:58.733Z,4324
2017-04-03T08:46:58.783Z,4676
2017-04-03T08:47:58.837Z,4412
2017-04-03T08:48:58.894Z,4408
2017-04-03T08:49:58.646Z,5020
2017-04-03T08:50:59.035Z,6164
2017-04-03T08:51:59.058Z,7972
2017-04-03T08:52:59.104Z,6844
2017-04-03T08:53:59.160Z,5460
2017-04-03T08:54:59.210Z,4432
2017-04-03T08:55:59.278Z,4032
2017-04-03T08:56:59.325Z,3920
2017-04-03T08:57:59.380Z,3956
2017-04-03T08:58:59.631Z,4116
2017-04-03T08:59:59.686Z,4320
2017-04-03T09:00:59.534Z,4388
2017-04-03T09:01:59.591Z,4308
2017-04-03T09:02:59.643Z,4100
2017-04-03T09:04:13.103Z,3852
2017-04-03T09:04:59.752Z,3800
2017-04-03T09:05:59.500Z,3920
2017-04-03T09:06:59.865Z,4120
2017-04-03T09:07:59.913Z,4212
2017-04-03T09:08:59.873Z,4392
2017-04-03T09:09:59.716Z,4448
2017-04-03T09:10:59.770Z,4620
2017-04-03T09:12:00.135Z,5532
2017-04-03T09:13:00.185Z,4948
2017-04-03T09:14:00.243Z,4332
2017-04-03T09:15:00.293Z,4244
2017-04-03T09:16:00.043Z,4064
2017-04-03T09:17:00.398Z,3804
2017-04-03T09:18:00.455Z,3756
2017-04-03T09:19:00.205Z,4048
2017-04-03T09:20:00.260Z,4148
2017-04-03T09:21:00.622Z,4636
2017-04-03T09:22:00.370Z,4824
2017-04-03T09:23:00.723Z,5248
2017-04-03T09:24:00.776Z,5456
2017-04-03T09:25:00.836Z,5568
2017-04-03T09:26:00.891Z,6788
2017-04-03T09:27:00.634Z,7488
2017-04-03T09:28:00.993Z,6556
2017-04-03T09:29:00.748Z,6540
2017-04-03T09:30:01.105Z,6608
2017-04-03T09:31:00.855Z,6416
2017-04-03T09:32:00.914Z,6812
2017-04-03T09:33:01.263Z,7260
2017-04-03T09:34:01.322Z,8908
2017-04-03T09:35:01.073Z,11920
2017-04-03T09:36:01.425Z,12908
2017-04-03T09:37:01.184Z,9108
2017-04-03T09:38:01.751Z,14068
2017-04-03T09:39:01.791Z,20320
2017-04-03T09:40:01.644Z,18872
2017-04-03T09:41:01.696Z,13540
2017-04-03T09:42:01.754Z,15656
2017-04-03T09:43:01.812Z,16456
2017-04-03T09:44:01.860Z,15264
2017-04-03T09:45:01.925Z,15308
2017-04-03T09:46:01.975Z,18672
2017-04-03T09:47:02.028Z,19900
2017-04-03T09:48:02.086Z,16412
2017-04-03T09:49:02.152Z,17644
2017-04-03T09:50:02.198Z,16572
2017-04-03T09:51:02.253Z,19348
2017-04-03T09:52:02.310Z,20960
2017-04-03T09:53:02.365Z,20992
2017-04-03T09:54:02.422Z,17112
2017-04-03T09:55:02.179Z,18148
2017-04-03T09:56:02.536Z,20136
2017-04-03T09:57:02.591Z,18988
2017-04-03T09:58:02.645Z,14848
2017-04-03T09:59:02.707Z,13924
2017-04-03T10:00:02.761Z,25440
2017-04-03T10:01:02.819Z,23296
2017-04-03T10:02:02.871Z,22752
2017-04-03T10:03:02.933Z,16788
2017-04-03T10:04:02.989Z,16932
2017-04-03T10:05:03.045Z,15952
2017-04-03T10:06:03.107Z,18176
2017-04-03T10:07:03.158Z,13940
2017-04-03T10:08:03.215Z,13508
2017-04-03T10:09:03.273Z,13512
2017-04-03T10:10:03.330Z,13804
2017-04-03T10:11:03.389Z,13760
2017-04-03T10:12:03.443Z,13556
2017-04-03T10:13:03.499Z,13276
2017-04-03T10:14:03.561Z,13336
2017-04-03T10:15:03.616Z,13828
2017-04-03T10:16:03.679Z,13456
2017-04-03T10:17:03.729Z,15292
2017-04-03T10:18:03.788Z,17396
2017-04-03T10:19:03.851Z,14760
2017-04-03T10:20:03.918Z,15728
2017-04-03T10:21:03.962Z,16748
2017-04-03T10:22:04.020Z,12772
2017-04-03T10:23:04.078Z,17128
2017-04-03T10:24:04.135Z,16392
2017-04-03T10:25:04.195Z,8664
2017-04-03T10:26:04.295Z,15420
2017-04-03T10:27:04.305Z,10812
2017-04-03T10:28:04.363Z,6304
2017-04-03T10:29:04.419Z,6736
2017-04-03T10:30:04.478Z,15116
2017-04-03T10:31:04.537Z,14776
2017-04-03T10:32:04.593Z,14232
2017-04-03T10:33:04.651Z,8400
2017-04-03T10:34:04.411Z,11368
2017-04-03T10:35:04.763Z,8604
2017-04-03T10:36:04.826Z,9132
2017-04-03T10:37:04.879Z,12548
2017-04-03T10:38:04.941Z,10356
2017-04-03T10:39:04.992Z,9364
2017-04-03T10:40:05.050Z,13788
2017-04-03T10:41:05.103Z,10956
2017-04-03T10:42:04.856Z,15640
2017-04-03T10:43:05.223Z,13300
2017-04-03T10:44:05.275Z,10488
2017-04-03T10:45:05.336Z,5684
2017-04-03T10:46:05.389Z,5348
2017-04-03T10:47:05.446Z,5244
2017-04-03T10:48:05.506Z,5616
2017-04-03T10:49:05.559Z,6016
2017-04-03T10:50:05.312Z,7044
2017-04-03T10:51:05.673Z,9968
2017-04-03T10:52:05.731Z,10712
2017-04-03T10:53:05.785Z,13544
2017-04-03T10:54:05.846Z,7136
2017-04-03T10:55:05.594Z,5604
2017-04-03T10:56:05.957Z,5704
2017-04-03T10:57:06.013Z,5904
2017-04-03T10:58:06.068Z,5964
2017-04-03T10:59:06.121Z,5900
2017-04-03T11:00:06.182Z,6188
2017-04-03T11:01:06.232Z,5916
2017-04-03T11:02:06.290Z,5792
2017-04-03T11:03:06.342Z,5936
2017-04-03T11:04:06.404Z,6020
2017-04-03T11:05:06.452Z,6340
2017-04-03T11:06:06.511Z,6588
2017-04-03T11:07:06.569Z,6324
2017-04-03T11:08:06.630Z,5860
2017-04-03T11:09:06.682Z,5896
2017-04-03T11:10:06.740Z,5944
2017-04-03T11:11:06.791Z,6296
2017-04-03T11:12:06.854Z,6700
2017-04-03T11:13:06.897Z,6868
2017-04-03T11:14:06.956Z,6440
2017-04-03T11:15:07.014Z,5928
2017-04-03T11:16:07.064Z,5676
2017-04-03T11:17:07.126Z,5620
2017-04-03T11:18:06.879Z,5568
2017-04-03T11:19:07.237Z,5588
2017-04-03T11:20:07.294Z,5560
2017-04-03T11:21:07.350Z,5624
2017-04-03T11:22:07.405Z,5680
2017-04-03T11:23:07.456Z,5672
2017-04-03T11:24:07.512Z,5772
2017-04-03T11:25:07.568Z,5824
2017-04-03T11:26:07.629Z,5912
2017-04-03T11:27:07.682Z,5684
2017-04-03T11:28:07.738Z,5408
2017-04-03T11:29:07.795Z,5196
2017-04-03T11:30:07.551Z,4988
2017-04-03T11:31:07.607Z,4792
2017-04-03T11:32:07.661Z,4644
2017-04-03T11:33:07.714Z,4612
2017-04-03T11:34:07.770Z,4732
2017-04-03T11:35:08.134Z,4772
2017-04-03T11:36:08.193Z,4756
2017-04-03T11:37:07.937Z,4672
2017-04-03T11:38:07.996Z,4576
2017-04-03T11:39:08.407Z,4532
2017-04-03T11:40:08.107Z,4568
2017-04-03T11:41:08.466Z,4672
2017-04-03T11:42:08.526Z,4772
2017-04-03T11:43:08.576Z,4808
2017-04-03T11:44:08.634Z,4852
2017-04-03T11:45:08.687Z,4896
2017-04-03T11:46:08.745Z,4984
2017-04-03T11:47:08.805Z,5096
2017-04-03T11:48:08.854Z,5192
2017-04-03T11:49:08.916Z,5340
2017-04-03T11:50:08.669Z,5540
2017-04-03T11:51:09.025Z,5744
2017-04-03T11:52:08.789Z,5972
2017-04-03T11:53:09.133Z,6240
2017-04-03T11:54:09.192Z,6532
2017-04-03T11:55:09.299Z,6772
2017-04-03T11:56:09.308Z,6960
2017-04-03T11:57:09.361Z,7068
2017-04-03T11:58:09.420Z,7172
2017-04-03T11:59:09.471Z,7284
2017-04-03T12:00:09.538Z,7164
2017-04-03T12:01:09.282Z,6932
2017-04-03T12:02:09.339Z,6492
2017-04-03T12:03:09.695Z,6152
2017-04-03T12:04:09.757Z,5924
2017-04-03T12:05:09.812Z,5676
2017-04-03T12:06:09.564Z,5324
2017-04-03T12:07:09.921Z,5004
2017-04-03T12:08:09.980Z,4648
2017-04-03T12:09:10.036Z,4312
2017-04-03T12:10:10.091Z,4124
2017-04-03T12:11:10.150Z,4112
2017-04-03T12:12:10.202Z,4244
2017-04-03T12:13:10.258Z,4528
2017-04-03T12:14:10.017Z,4552
2017-04-03T12:15:10.073Z,4488
2017-04-03T12:16:10.432Z,4732
2017-04-03T12:17:10.484Z,5464
2017-04-03T12:18:10.540Z,5248
2017-04-03T12:19:10.293Z,5428
2017-04-03T12:20:10.651Z,5756
2017-04-03T12:21:10.705Z,5384
2017-04-03T12:22:10.461Z,4864
2017-04-03T12:23:10.819Z,4616
2017-04-03T12:24:10.876Z,4432
2017-04-03T12:25:10.929Z,4316
2017-04-03T12:26:10.984Z,4312
2017-04-03T12:27:11.045Z,4240
2017-04-03T12:28:11.100Z,4140
2017-04-03T12:29:11.155Z,4104
2017-04-03T12:30:11.210Z,4008
2017-04-03T12:31:11.267Z,3884
2017-04-03T12:32:11.021Z,3940
2017-04-03T12:33:11.380Z,3924
2017-04-03T12:34:11.432Z,3832
2017-04-03T12:35:11.492Z,3712
2017-04-03T12:36:11.549Z,3608
2017-04-03T12:37:11.605Z,3612
2017-04-03T12:38:11.356Z,3640
2017-04-03T12:39:11.715Z,3660
2017-04-03T12:40:11.768Z,3764
2017-04-03T12:41:11.830Z,3768
2017-04-03T12:42:11.275Z,3748
2017-04-03T12:43:11.633Z,3688
2017-04-03T12:44:11.996Z,3728
2017-04-03T12:45:11.748Z,3800
2017-04-03T12:46:12.107Z,4024
2017-04-03T12:47:12.158Z,4248
2017-04-03T12:48:12.213Z,4332
2017-04-03T12:49:12.274Z,4320
2017-04-03T12:50:12.026Z,4424
2017-04-03T12:51:12.078Z,4464
2017-04-03T12:52:12.145Z,4504
2017-04-03T12:53:12.496Z,4456
2017-04-03T12:54:12.552Z,4404
2017-04-03T12:55:12.606Z,4400
2017-04-03T12:56:12.655Z,4444
2017-04-03T12:57:12.716Z,4448
2017-04-03T12:58:12.772Z,4444
2017-04-03T12:59:12.523Z,4416
2017-04-03T13:00:12.877Z,4324
2017-04-03T13:01:12.935Z,4296
2017-04-03T13:02:12.993Z,4360
2017-04-03T13:03:13.050Z,4412
2017-04-03T13:04:13.104Z,4436
2017-04-03T13:05:13.165Z,4432
2017-04-03T13:06:13.217Z,4464
2017-04-03T13:07:13.272Z,4676
2017-04-03T13:08:13.022Z,4804
2017-04-03T13:09:13.385Z,4876
2017-04-03T13:10:13.440Z,4920
2017-04-03T13:11:13.501Z,4932
2017-04-03T13:12:13.547Z,4968
2017-04-03T13:13:13.604Z,5060
2017-04-03T13:14:13.664Z,5180
2017-04-03T13:15:13.749Z,5368
2017-04-03T13:16:13.770Z,5624
2017-04-03T13:17:13.825Z,5920
2017-04-03T13:18:13.880Z,6276
2017-04-03T13:19:13.633Z,6664
2017-04-03T13:20:13.990Z,7172
2017-04-03T13:21:14.050Z,7468
2017-04-03T13:22:14.106Z,7632
2017-04-03T13:23:14.162Z,7668
2017-04-03T13:24:14.212Z,7404
2017-04-03T13:25:13.966Z,6812
2017-04-03T13:26:14.023Z,6616
2017-04-03T13:27:14.382Z,6416
2017-04-03T13:28:14.435Z,6440
2017-04-03T13:29:14.491Z,6592